Time;durP1;ratioP1;P1;durP2;ratioP2;P2;SDS_P1;SDS_P2;PMS_P1;PMS_P2;Temp;Humidity;BMP_temperature;BMP_pressure;BME280_temperature;BME280_humidity;BME280_pressure;Samples;Min_cycle;Max_cycle;Signal;HPM_P1;HPM_P2
2022/06/09 00:02:03;;;;;;;7.55;5.80;;;16.40;99.90;;;;;;4984075;28;20198;-66
2022/06/09 00:04:34;;;;;;;8.18;4.90;;;16.40;99.90;;;;;;4985686;28;20761;-66
2022/06/09 00:07:04;;;;;;;4.78;4.22;;;16.50;99.90;;;;;;5003975;28;20199;-65
2022/06/09 00:09:35;;;;;;;5.50;3.95;;;16.50;99.90;;;;;;4987696;28;20202;-66
2022/06/09 00:12:02;;;;;;;5.85;4.10;;;16.50;99.90;;;;;;4988864;28;20203;-66
2022/06/09 00:14:29;;;;;;;7.00;4.55;;;16.50;99.90;;;;;;4986066;28;20212;-66
2022/06/09 00:16:56;;;;;;;6.88;4.47;;;16.50;99.90;;;;;;4999345;28;20241;-66
2022/06/09 00:19:23;;;;;;;7.63;4.95;;;15.50;99.90;;;;;;4988179;28;20915;-66
2022/06/09 00:21:50;;;;;;;6.35;5.32;;;16.50;99.90;;;;;;4994666;28;20710;-67
2022/06/09 00:24:19;;;;;;;8.60;5.55;;;16.40;99.90;;;;;;5003629;28;20213;-66
2022/06/09 00:26:47;;;;;;;5.18;4.32;;;16.60;99.90;;;;;;4974973;28;20210;-66
2022/06/09 00:29:14;;;;;;;9.75;5.25;;;16.60;99.90;;;;;;4992653;28;20221;-66
2022/06/09 00:31:40;;;;;;;6.75;6.15;;;16.60;99.90;;;;;;4987235;28;20692;-66
2022/06/09 00:34:07;;;;;;;7.88;6.18;;;16.60;99.90;;;;;;4977079;28;20202;-66
2022/06/09 00:36:34;;;;;;;6.45;5.85;;;16.60;99.90;;;;;;5001032;28;20226;-66
2022/06/09 00:39:01;;;;;;;9.02;6.40;;;16.60;99.90;;;;;;5005098;28;20198;-66
2022/06/09 00:41:29;;;;;;;8.57;5.45;;;16.60;99.90;;;;;;5002609;28;20406;-66
2022/06/09 00:44:16;;;;;;;6.05;5.43;;;16.50;99.90;;;;;;4994500;28;20260;-66
2022/06/09 00:46:44;;;;;;;6.53;4.50;;;16.50;99.90;;;;;;4986090;28;20473;-66
2022/06/09 00:49:17;;;;;;;6.55;4.63;;;16.50;99.90;;;;;;4986095;28;20249;-66
2022/06/09 00:51:47;;;;;;;5.22;4.72;;;16.50;99.90;;;;;;5004135;28;20309;-67
2022/06/09 00:54:18;;;;;;;5.32;4.82;;;16.50;99.90;;;;;;5010636;28;20209;-66
2022/06/09 00:56:49;;;;;;;9.60;5.38;;;16.50;99.90;;;;;;4984886;28;20226;-66
2022/06/09 00:59:20;;;;;;;8.00;5.43;;;16.50;99.90;;;;;;4994098;28;20808;-66
2022/06/09 01:01:47;;;;;;;8.13;5.68;;;16.50;99.90;;;;;;4999519;28;20583;-66
2022/06/09 01:04:17;;;;;;;7.40;5.88;;;16.50;99.90;;;;;;4977777;28;20218;-66
2022/06/09 01:06:49;;;;;;;6.25;5.65;;;16.40;99.90;;;;;;4998288;28;20864;-66
2022/06/09 01:09:19;;;;;;;6.22;5.60;;;16.40;99.90;;;;;;5001385;28;20207;-66
2022/06/09 01:11:47;;;;;;;7.03;5.75;;;16.40;99.90;;;;;;5006685;28;20208;-66
2022/06/09 01:14:16;;;;;;;7.47;6.22;;;16.20;99.90;;;;;;4992260;28;20198;-67
2022/06/09 01:16:57;;;;;;;6.45;5.80;;;16.40;99.90;;;;;;4999762;28;20229;-66
2022/06/09 01:20:03;;;;;;;7.30;6.40;;;16.30;99.90;;;;;;4982924;28;21178;-66
2022/06/09 01:23:15;;;;;;;7.50;6.60;;;16.40;99.90;;;;;;5010633;28;20198;-66
2022/06/09 01:26:08;;;;;;;7.25;6.50;;;16.40;99.90;;;;;;5009331;28;20203;-67
2022/06/09 01:29:26;;;;;;;7.47;6.32;;;16.30;99.90;;;;;;4994677;28;20745;-66
2022/06/09 01:32:00;;;;;;;7.30;6.43;;;16.30;99.90;;;;;;5003862;28;20209;-66
2022/06/09 01:34:34;;;;;;;7.13;6.25;;;16.20;99.90;;;;;;4995329;28;20253;-66
2022/06/09 01:37:07;;;;;;;9.18;6.63;;;16.40;99.90;;;;;;4989201;28;20236;-66
2022/06/09 01:39:45;;;;;;;15.15;7.50;;;16.50;99.90;;;;;;5011312;28;20706;-66
2022/06/09 01:42:28;;;;;;;7.40;6.68;;;16.40;99.90;;;;;;4984617;28;20202;-66
2022/06/09 01:44:58;;;;;;;8.55;6.47;;;16.40;99.90;;;;;;4994806;28;20697;-66
2022/06/09 01:47:34;;;;;;;7.32;6.43;;;16.40;99.90;;;;;;4987099;28;20206;-66
2022/06/09 01:50:06;;;;;;;10.25;6.65;;;16.50;99.90;;;;;;4985580;28;20203;-67
2022/06/09 01:52:34;;;;;;;7.75;6.68;;;16.50;99.90;;;;;;5007360;28;20202;-66
2022/06/09 01:55:04;;;;;;;10.57;6.57;;;16.50;99.90;;;;;;5010107;28;20205;-66
2022/06/09 01:57:36;;;;;;;9.23;7.05;;;16.50;99.90;;;;;;4988118;28;20229;-66
2022/06/09 02:00:08;;;;;;;9.48;6.63;;;16.40;99.90;;;;;;5001294;28;20202;-66
2022/06/09 02:02:41;;;;;;;12.48;7.68;;;16.40;99.90;;;;;;4986759;28;20276;-66
2022/06/09 02:05:13;;;;;;;9.25;7.00;;;16.50;99.90;;;;;;5003958;28;20213;-66
2022/06/09 02:07:42;;;;;;;10.98;7.97;;;17.20;99.90;;;;;;4993987;28;20206;-66
2022/06/09 02:10:21;;;;;;;9.82;7.50;;;16.30;99.90;;;;;;4998564;28;20213;-66
2022/06/09 02:12:49;;;;;;;9.18;7.68;;;16.40;99.90;;;;;;4998527;28;20857;-66
2022/06/09 02:15:24;;;;;;;12.40;9.13;;;16.30;99.90;;;;;;4999625;28;20237;-66
2022/06/09 02:17:52;;;;;;;7.82;6.60;;;16.40;99.90;;;;;;4993480;28;20260;-67
2022/06/09 02:20:23;;;;;;;9.25;7.60;;;16.30;99.90;;;;;;5010155;28;20206;-66
2022/06/09 02:22:50;;;;;;;11.23;7.40;;;15.90;99.90;;;;;;4978160;28;20214;-66
2022/06/09 02:25:18;;;;;;;11.27;7.25;;;16.40;99.90;;;;;;4993708;28;20194;-66
2022/06/09 02:27:45;;;;;;;10.65;8.18;;;16.30;99.90;;;;;;4983558;28;20241;-66
2022/06/09 02:30:12;;;;;;;13.73;8.52;;;16.40;99.90;;;;;;5005266;28;20202;-66
2022/06/09 02:32:39;;;;;;;10.70;7.40;;;16.30;99.90;;;;;;4981683;28;20202;-66
2022/06/09 02:35:09;;;;;;;11.45;8.43;;;16.30;99.90;;;;;;5007373;28;20210;-66
2022/06/09 02:37:36;;;;;;;14.32;8.20;;;16.20;99.90;;;;;;4977448;28;20738;-66
2022/06/09 02:40:04;;;;;;;13.05;8.07;;;16.30;99.90;;;;;;4982904;28;20596;-66
2022/06/09 02:42:31;;;;;;;12.23;8.15;;;16.30;99.90;;;;;;5000575;28;20730;-66
2022/06/09 02:44:57;;;;;;;13.60;8.63;;;16.20;99.90;;;;;;4997067;28;20409;-66
2022/06/09 02:47:24;;;;;;;13.57;8.70;;;16.30;99.90;;;;;;4974571;28;20213;-66
2022/06/09 02:49:51;;;;;;;15.52;8.98;;;16.30;99.90;;;;;;4997442;28;20213;-66
2022/06/09 02:52:19;;;;;;;13.80;9.38;;;16.30;99.90;;;;;;5004089;28;20633;-66
2022/06/09 02:54:46;;;;;;;15.63;8.90;;;16.40;99.90;;;;;;4981970;28;20202;-67
2022/06/09 02:57:13;;;;;;;11.70;8.77;;;16.40;99.90;;;;;;4994184;28;20234;-67
2022/06/09 02:59:39;;;;;;;14.60;9.65;;;16.40;99.90;;;;;;4993773;28;20213;-66
2022/06/09 03:02:06;;;;;;;13.60;8.60;;;16.40;99.90;;;;;;5009067;28;20312;-66
2022/06/09 03:04:33;;;;;;;12.65;9.80;;;16.40;99.90;;;;;;4994902;28;20574;-67
2022/06/09 03:07:00;;;;;;;18.52;9.40;;;16.50;99.90;;;;;;4977080;28;20217;-66
2022/06/09 03:09:29;;;;;;;18.05;10.30;;;16.40;99.90;;;;;;4989046;28;20432;-66
2022/06/09 03:11:55;;;;;;;15.70;10.40;;;16.50;99.90;;;;;;4992746;28;20737;-66
2022/06/09 03:14:22;;;;;;;17.08;10.63;;;16.40;99.90;;;;;;4986787;28;20675;-66
2022/06/09 03:16:50;;;;;;;14.10;10.15;;;16.50;99.90;;;;;;5006505;28;20218;-66
2022/06/09 03:19:17;;;;;;;16.42;9.80;;;16.40;99.90;;;;;;4979349;28;20673;-66
2022/06/09 03:21:44;;;;;;;23.60;10.68;;;16.40;99.90;;;;;;4997440;28;20210;-66
2022/06/09 03:24:11;;;;;;;16.38;10.27;;;16.40;99.90;;;;;;4981408;28;22616;-66
2022/06/09 03:26:39;;;;;;;12.63;9.30;;;;;;;;;;4998245;28;20207;-66
2022/06/09 03:29:06;;;;;;;15.25;9.93;;;16.40;99.90;;;;;;4989602;28;20676;-66
2022/06/09 03:31:33;;;;;;;15.40;10.18;;;16.40;99.90;;;;;;4985283;28;20206;-66
2022/06/09 03:34:00;;;;;;;18.00;10.02;;;16.40;99.90;;;;;;4986272;28;20203;-66
2022/06/09 03:36:26;;;;;;;16.02;9.48;;;16.40;99.90;;;;;;4995588;28;20222;-66
2022/06/09 03:38:53;;;;;;;15.48;10.02;;;16.40;99.90;;;;;;4992720;28;20202;-66
2022/06/09 03:41:20;;;;;;;16.45;9.85;;;16.40;99.90;;;;;;4978921;28;20224;-66
2022/06/09 03:43:49;;;;;;;14.10;9.90;;;16.40;99.90;;;;;;5006281;28;20199;-66
2022/06/09 03:46:15;;;;;;;20.05;10.40;;;16.40;99.90;;;;;;4990040;28;20225;-66
2022/06/09 03:48:43;;;;;;;19.48;11.23;;;16.40;99.90;;;;;;4985435;28;20639;-66
2022/06/09 03:51:11;;;;;;;17.50;10.73;;;16.40;99.90;;;;;;5002449;28;20292;-66
2022/06/09 03:53:38;;;;;;;19.33;10.18;;;16.50;99.90;;;;;;4991995;28;20507;-66
2022/06/09 03:56:05;;;;;;;17.02;10.75;;;16.50;99.90;;;;;;4980032;28;20219;-66
2022/06/09 03:58:32;;;;;;;19.70;10.30;;;16.40;99.90;;;;;;4999485;28;20606;-66
2022/06/09 04:01:01;;;;;;;18.83;11.10;;;16.50;99.90;;;;;;4998555;28;20574;-66
2022/06/09 04:03:29;;;;;;;15.25;11.20;;;16.50;99.90;;;;;;4987558;28;20462;-66
2022/06/09 04:05:56;;;;;;;19.10;11.45;;;16.50;99.90;;;;;;4999432;28;20209;-66
2022/06/09 04:08:23;;;;;;;18.77;10.45;;;14.30;99.90;;;;;;4992966;28;20220;-66
2022/06/09 04:10:51;;;;;;;19.25;11.23;;;16.50;99.90;;;;;;4978171;28;20202;-66
2022/06/09 04:13:18;;;;;;;21.05;10.52;;;16.40;99.90;;;;;;4984357;28;20229;-66
2022/06/09 04:15:45;;;;;;;22.50;10.40;;;16.50;99.90;;;;;;4993276;28;20672;-66
2022/06/09 04:18:13;;;;;;;15.70;9.45;;;16.50;99.90;;;;;;4988273;28;20237;-66
2022/06/09 04:20:40;;;;;;;19.48;11.10;;;16.50;99.90;;;;;;4994990;28;20200;-66
2022/06/09 04:23:07;;;;;;;16.58;9.35;;;16.40;99.90;;;;;;4988913;28;20214;-66
2022/06/09 04:25:34;;;;;;;15.65;9.93;;;16.50;99.90;;;;;;4993394;28;20204;-66
2022/06/09 04:28:01;;;;;;;16.52;10.07;;;16.50;99.90;;;;;;4974579;28;20229;-66
2022/06/09 04:30:28;;;;;;;19.67;10.65;;;16.50;99.90;;;;;;5000486;28;20496;-66
2022/06/09 04:32:55;;;;;;;16.63;10.32;;;16.40;99.90;;;;;;4994155;28;20419;-66
2022/06/09 04:35:24;;;;;;;18.63;10.65;;;16.40;99.90;;;;;;4990884;28;20537;-66
2022/06/09 04:38:00;;;;;;;20.02;10.07;;;16.40;99.90;;;;;;5008623;28;20590;-66
2022/06/09 04:40:28;;;;;;;23.25;9.65;;;16.40;99.90;;;;;;4975912;28;20225;-66
2022/06/09 04:42:55;;;;;;;21.52;10.52;;;16.40;99.90;;;;;;4989332;28;20236;-65
2022/06/09 04:45:22;;;;;;;19.05;10.13;;;16.50;99.90;;;;;;4982616;28;20202;-65
2022/06/09 04:47:48;;;;;;;21.20;10.70;;;16.40;99.90;;;;;;5006012;28;20292;-65
2022/06/09 04:50:18;;;;;;;21.13;10.13;;;16.40;99.90;;;;;;4965528;28;20734;-65
2022/06/09 04:52:46;;;;;;;15.27;9.73;;;16.40;99.90;;;;;;5008134;28;20202;-66
2022/06/09 04:55:13;;;;;;;17.17;10.15;;;;;;;;;;4980632;28;20229;-66
2022/06/09 04:57:40;;;;;;;18.83;10.63;;;;;;;;;;4985302;28;20265;-66
2022/06/09 05:00:11;;;;;;;18.75;10.23;;;16.40;99.90;;;;;;4980100;28;20214;-66
2022/06/09 05:02:38;;;;;;;22.90;10.75;;;16.50;99.90;;;;;;4994334;28;20218;-66
2022/06/09 05:05:06;;;;;;;18.30;10.07;;;16.40;99.90;;;;;;4976277;28;20642;-67
2022/06/09 05:07:33;;;;;;;17.15;9.65;;;16.40;99.90;;;;;;4993640;28;20809;-67
2022/06/09 05:10:01;;;;;;;20.05;10.30;;;16.30;99.90;;;;;;4993872;28;20222;-66
2022/06/09 05:12:28;;;;;;;19.27;9.07;;;16.30;99.90;;;;;;4992733;28;20566;-66
2022/06/09 05:14:55;;;;;;;18.83;9.55;;;16.20;99.90;;;;;;4983650;28;20202;-66
2022/06/09 05:17:22;;;;;;;17.60;9.48;;;16.20;99.90;;;;;;4986367;28;20462;-66
2022/06/09 05:19:49;;;;;;;15.90;8.60;;;16.20;99.90;;;;;;4992656;28;20226;-66
2022/06/09 05:22:16;;;;;;;17.75;9.00;;;16.20;99.90;;;;;;4987485;28;20514;-66
2022/06/09 05:24:42;;;;;;;17.02;9.77;;;16.20;99.90;;;;;;4987415;28;20784;-66
2022/06/09 05:27:14;;;;;;;15.52;8.38;;;15.90;99.90;;;;;;4985258;28;20260;-66
2022/06/09 05:29:41;;;;;;;16.88;9.27;;;16.20;99.90;;;;;;4979434;28;20222;-67
2022/06/09 05:32:09;;;;;;;16.33;9.07;;;16.20;99.90;;;;;;4988533;28;20221;-66
2022/06/09 05:34:36;;;;;;;18.13;9.02;;;16.20;99.90;;;;;;5009017;28;20272;-67
2022/06/09 05:37:03;;;;;;;16.80;9.02;;;16.20;99.90;;;;;;5000879;28;20240;-66
2022/06/09 05:45:09;;;;;;;17.15;9.27;;;16.30;99.90;;;;;;4970290;28;21215;-67
2022/06/09 05:47:36;;;;;;;21.45;10.10;;;15.60;99.90;;;;;;4978750;28;20222;-67
2022/06/09 05:50:03;;;;;;;14.07;8.80;;;16.20;99.90;;;;;;5011536;28;20208;-66
2022/06/09 05:52:31;;;;;;;16.35;8.63;;;16.30;99.90;;;;;;4997419;28;20233;-67
2022/06/09 05:54:58;;;;;;;20.55;8.95;;;16.20;99.90;;;;;;5009761;28;20220;-66
2022/06/09 05:57:27;;;;;;;15.20;8.55;;;16.20;99.90;;;;;;4986747;28;20226;-67
2022/06/09 05:59:55;;;;;;;19.85;8.43;;;16.10;99.90;;;;;;5011845;28;20199;-67
2022/06/09 06:02:25;;;;;;;17.30;8.95;;;16.20;99.90;;;;;;4996932;28;20861;-67
2022/06/09 06:04:52;;;;;;;16.05;8.35;;;16.10;99.90;;;;;;5007128;28;20842;-66
2022/06/09 06:07:19;;;;;;;18.80;8.50;;;15.90;99.90;;;;;;5000171;28;20547;-66
2022/06/09 06:09:46;;;;;;;13.65;8.00;;;16.20;99.90;;;;;;4998770;28;20605;-67
2022/06/09 06:12:13;;;;;;;16.52;8.15;;;16.20;99.90;;;;;;4986217;28;20363;-67
2022/06/09 06:14:42;;;;;;;20.08;10.98;;;16.20;99.90;;;;;;4986608;28;20538;-68
2022/06/09 06:17:08;;;;;;;12.60;8.35;;;16.30;99.90;;;;;;4986028;28;20463;-68
2022/06/09 06:19:35;;;;;;;15.35;8.18;;;16.10;99.90;;;;;;5005331;28;20830;-67
2022/06/09 06:22:02;;;;;;;15.48;8.15;;;16.20;99.90;;;;;;4990927;28;20805;-67
2022/06/09 06:24:29;;;;;;;14.43;8.30;;;16.20;99.90;;;;;;4999236;28;20544;-67
2022/06/09 06:26:56;;;;;;;14.68;7.60;;;16.20;99.90;;;;;;5003063;28;20384;-67
2022/06/09 06:29:25;;;;;;;19.45;7.53;;;16.20;99.90;;;;;;5009072;28;20199;-67
2022/06/09 06:31:54;;;;;;;12.48;7.82;;;16.20;99.90;;;;;;4972583;28;20572;-67
2022/06/09 06:34:21;;;;;;;13.32;7.60;;;16.10;99.90;;;;;;4999212;28;20525;-67
2022/06/09 06:36:48;;;;;;;13.80;7.07;;;16.10;99.90;;;;;;5003618;28;20205;-67
2022/06/09 06:39:15;;;;;;;15.63;7.25;;;16.10;99.90;;;;;;4985420;28;20550;-68
2022/06/09 06:41:42;;;;;;;12.05;7.43;;;16.20;99.90;;;;;;5006960;28;20248;-67
2022/06/09 06:44:09;;;;;;;16.33;7.68;;;16.10;99.90;;;;;;4991173;28;20705;-68
2022/06/09 06:46:36;;;;;;;15.10;7.43;;;16.10;99.90;;;;;;5003054;28;20209;-67
2022/06/09 06:49:05;;;;;;;14.85;7.57;;;16.10;99.90;;;;;;4984818;28;20233;-67
2022/06/09 06:51:32;;;;;;;15.13;7.47;;;16.10;99.90;;;;;;4997307;28;20213;-68
2022/06/09 06:53:59;;;;;;;12.15;6.68;;;16.10;99.90;;;;;;4985031;28;20238;-68
2022/06/09 06:56:26;;;;;;;11.25;6.75;;;16.10;99.90;;;;;;5012654;28;20190;-67
2022/06/09 06:58:53;;;;;;;12.93;6.90;;;16.20;99.90;;;;;;4985359;28;20892;-68
2022/06/09 07:01:19;;;;;;;11.23;6.53;;;16.20;99.90;;;;;;4996396;28;20691;-67
2022/06/09 07:03:46;;;;;;;12.57;7.05;;;16.20;99.90;;;;;;4974810;28;20723;-67
2022/06/09 07:06:14;;;;;;;12.85;7.35;;;16.20;99.90;;;;;;4988479;28;20323;-67
2022/06/09 07:08:41;;;;;;;9.65;6.45;;;16.30;99.90;;;;;;4989395;28;21281;-67
2022/06/09 07:11:09;;;;;;;12.07;6.82;;;16.30;99.90;;;;;;4988957;28;20202;-67
2022/06/09 07:13:37;;;;;;;15.35;7.22;;;16.30;99.90;;;;;;5003255;28;20364;-67
2022/06/09 07:16:05;;;;;;;14.77;6.80;;;16.30;99.90;;;;;;4999587;28;20244;-67
2022/06/09 07:18:34;;;;;;;11.40;6.70;;;12.90;99.90;;;;;;4962407;28;20241;-67
2022/06/09 07:21:01;;;;;;;10.60;7.00;;;16.40;99.90;;;;;;4996290;28;20703;-67
2022/06/09 07:23:31;;;;;;;14.90;6.97;;;16.50;99.90;;;;;;4972893;28;20524;-67
2022/06/09 07:25:59;;;;;;;10.65;6.78;;;16.40;99.90;;;;;;5002275;28;20206;-68
2022/06/09 07:28:26;;;;;;;14.55;6.85;;;16.50;99.90;;;;;;4979288;28;20585;-67
2022/06/09 07:30:56;;;;;;;8.63;6.80;;;16.50;99.90;;;;;;5008897;28;20924;-67
2022/06/09 07:33:24;;;;;;;9.63;6.38;;;14.30;99.90;;;;;;4975145;28;20595;-68
2022/06/09 07:35:53;;;;;;;12.02;6.60;;;16.50;99.90;;;;;;5006910;28;20198;-67
2022/06/09 07:38:21;;;;;;;13.60;7.13;;;15.00;99.90;;;;;;4986302;28;20226;-68
2022/06/09 07:40:49;;;;;;;15.23;7.13;;;16.40;99.90;;;;;;5004555;28;20198;-67
2022/06/09 07:43:17;;;;;;;17.88;7.45;;;16.40;99.90;;;;;;4995941;28;20198;-67
2022/06/09 07:45:44;;;;;;;11.27;6.72;;;16.40;99.90;;;;;;4991163;28;20229;-67
2022/06/09 07:48:11;;;;;;;10.40;5.97;;;16.40;99.90;;;;;;4999377;28;20206;-67
2022/06/09 07:50:39;;;;;;;12.38;6.38;;;16.50;99.90;;;;;;4986526;28;20537;-67
2022/06/09 07:53:06;;;;;;;12.57;6.75;;;16.40;99.90;;;;;;4979087;28;20385;-67
2022/06/09 07:55:33;;;;;;;9.80;6.60;;;16.40;99.90;;;;;;4977028;28;20201;-67
2022/06/09 07:58:02;;;;;;;12.73;6.75;;;16.40;99.90;;;;;;4989131;28;20413;-67
2022/06/09 08:00:29;;;;;;;14.27;7.18;;;16.40;99.90;;;;;;4983124;28;20256;-67
2022/06/09 08:02:56;;;;;;;11.95;7.88;;;16.40;99.90;;;;;;4981896;28;20415;-68
2022/06/09 08:05:25;;;;;;;11.30;6.95;;;16.40;99.90;;;;;;4983028;28;20800;-67
2022/06/09 08:07:53;;;;;;;14.88;6.57;;;16.40;99.90;;;;;;4989584;28;20876;-68
2022/06/09 08:10:24;;;;;;;16.88;7.82;;;16.50;99.90;;;;;;4987023;28;20205;-67
2022/06/09 08:12:53;;;;;;;15.38;7.25;;;16.50;99.90;;;;;;4982139;28;20990;-68
2022/06/09 08:15:24;;;;;;;9.60;7.15;;;16.50;99.90;;;;;;4986578;28;20210;-68
2022/06/09 08:17:51;;;;;;;19.77;8.20;;;16.50;99.90;;;;;;4995391;28;20230;-68
2022/06/09 08:20:18;;;;;;;11.95;7.13;;;16.50;99.90;;;;;;4978811;28;22970;-68
2022/06/09 08:22:45;;;;;;;16.75;7.93;;;16.40;99.90;;;;;;4991461;28;20867;-68
2022/06/09 08:25:14;;;;;;;12.07;7.10;;;16.40;99.90;;;;;;4973063;28;20205;-67
2022/06/09 08:27:41;;;;;;;11.75;7.10;;;16.40;99.90;;;;;;4985579;28;20797;-67
2022/06/09 08:30:12;;;;;;;19.08;7.78;;;16.50;99.90;;;;;;4994314;28;20575;-68
2022/06/09 08:32:40;;;;;;;14.85;8.38;;;16.60;99.90;;;;;;4984759;28;20198;-67
2022/06/09 08:35:10;;;;;;;12.00;7.90;;;16.50;99.90;;;;;;4994053;28;20201;-68
2022/06/09 08:37:37;;;;;;;17.38;8.00;;;16.50;99.90;;;;;;4975137;28;21279;-68
2022/06/09 08:40:06;;;;;;;18.15;8.82;;;16.60;99.90;;;;;;4990351;28;20199;-67
2022/06/09 08:42:42;;;;;;;11.85;7.53;;;16.60;99.90;;;;;;4985511;28;20201;-68
2022/06/09 08:45:11;;;;;;;13.13;8.13;;;16.60;99.90;;;;;;4990385;28;20210;-67
2022/06/09 08:47:42;;;;;;;12.45;8.48;;;16.70;99.90;;;;;;4993327;28;20204;-67
2022/06/09 08:50:16;;;;;;;14.63;9.05;;;16.60;99.90;;;;;;4992314;28;20205;-67
2022/06/09 08:52:52;;;;;;;9.43;7.70;;;16.80;99.90;;;;;;4983556;28;20449;-67
2022/06/09 08:55:28;;;;;;;16.50;8.35;;;16.60;99.90;;;;;;5000685;28;20198;-68
2022/06/09 08:58:00;;;;;;;15.18;8.40;;;16.70;99.90;;;;;;4990889;28;20205;-67
2022/06/09 09:00:31;;;;;;;14.80;8.23;;;16.70;99.90;;;;;;4992875;28;20206;-67
2022/06/09 09:03:04;;;;;;;12.00;8.38;;;16.70;99.90;;;;;;4988960;28;21352;-68
2022/06/09 09:05:37;;;;;;;15.25;9.32;;;16.70;99.90;;;;;;5010315;28;20831;-67
2022/06/09 09:08:06;;;;;;;15.68;9.07;;;16.80;99.90;;;;;;4987638;28;20209;-67
2022/06/09 09:10:45;;;;;;;17.50;9.10;;;16.90;99.90;;;;;;4999192;28;20403;-67
2022/06/09 09:13:39;;;;;;;15.32;8.65;;;16.90;99.90;;;;;;5003547;28;20210;-67
2022/06/09 09:16:19;;;;;;;15.07;9.20;;;17.10;99.90;;;;;;4989878;28;20267;-67
2022/06/09 09:18:54;;;;;;;15.93;9.02;;;17.20;99.90;;;;;;5003486;28;20812;-67
2022/06/09 09:21:49;;;;;;;14.25;9.32;;;17.40;99.90;;;;;;5003682;28;20678;-67
2022/06/09 09:24:32;;;;;;;20.80;9.73;;;17.50;99.90;;;;;;4986624;28;20210;-67
2022/06/09 09:27:13;;;;;;;12.70;8.98;;;17.50;99.90;;;;;;4992618;28;20909;-67
2022/06/09 09:29:47;;;;;;;14.50;9.02;;;17.50;99.90;;;;;;4998888;28;20201;-67
2022/06/09 09:32:18;;;;;;;16.45;9.15;;;17.70;99.90;;;;;;4997613;28;20198;-67
2022/06/09 09:34:48;;;;;;;18.38;9.20;;;17.60;99.90;;;;;;5004291;28;20861;-68
2022/06/09 09:37:23;;;;;;;17.25;9.15;;;17.60;99.90;;;;;;4997001;28;20271;-68
2022/06/09 09:39:54;;;;;;;15.95;8.77;;;17.70;99.90;;;;;;4983420;28;20324;-69
2022/06/09 09:42:23;;;;;;;13.13;8.85;;;17.70;99.90;;;;;;4996651;28;20191;-68
2022/06/09 09:45:14;;;;;;;13.20;8.45;;;17.70;99.90;;;;;;4984466;28;21224;-67
2022/06/09 09:47:49;;;;;;;11.88;8.23;;;17.70;99.90;;;;;;4998554;28;20197;-67
2022/06/09 09:50:33;;;;;;;13.77;9.10;;;17.70;99.90;;;;;;5008916;28;20202;-67
2022/06/09 09:53:04;;;;;;;11.63;8.50;;;17.20;99.90;;;;;;4989507;28;20511;-68
2022/06/09 09:55:38;;;;;;;16.40;9.30;;;17.50;99.90;;;;;;4992693;28;20675;-67
2022/06/09 09:58:36;;;;;;;13.73;8.32;;;17.50;99.90;;;;;;4992819;28;20212;-67
2022/06/09 10:01:06;;;;;;;12.02;8.73;;;17.60;99.90;;;;;;5008561;28;20432;-67
2022/06/09 10:09:17;;;;;;;11.68;9.00;;;17.60;99.90;;;;;;4996525;28;21554;-68
2022/06/09 10:11:58;;;;;;;14.95;9.00;;;17.60;99.90;;;;;;4989373;28;20198;-68
2022/06/09 10:14:32;;;;;;;13.38;7.65;;;17.60;99.90;;;;;;4993564;28;20348;-67
2022/06/09 10:17:01;;;;;;;10.88;8.77;;;17.80;99.90;;;;;;5009589;28;20201;-67
2022/06/09 10:19:30;;;;;;;12.52;8.63;;;18.10;99.90;;;;;;4987991;28;20224;-67
2022/06/09 10:21:59;;;;;;;11.30;8.20;;;18.40;99.90;;;;;;4996544;28;20682;-68
2022/06/09 10:24:34;;;;;;;12.52;8.73;;;21.20;99.90;;;;;;4997539;28;20209;-68
2022/06/09 10:27:02;;;;;;;10.30;7.65;;;18.40;99.90;;;;;;4999288;28;20831;-67
2022/06/09 10:29:37;;;;;;;11.57;7.38;;;18.50;99.90;;;;;;4989735;28;20651;-67
2022/06/09 10:32:08;;;;;;;10.43;6.78;;;18.70;99.90;;;;;;5003407;28;20197;-67
2022/06/09 10:34:40;;;;;;;9.60;7.10;;;18.90;99.90;;;;;;4996334;28;20211;-67
2022/06/09 10:37:18;;;;;;;7.50;6.00;;;18.50;99.90;;;;;;4977095;28;20232;-67
2022/06/09 10:39:50;;;;;;;8.27;5.95;;;18.30;99.90;;;;;;5002566;28;20336;-67
2022/06/09 10:42:29;;;;;;;9.35;7.00;;;18.40;99.90;;;;;;4986903;28;20216;-68
2022/06/09 10:45:10;;;;;;;8.85;6.35;;;18.30;99.90;;;;;;4987036;28;20686;-67
2022/06/09 10:56:17;;;;;;;5.72;4.68;;;18.90;99.90;;;;;;4983730;28;20221;-66
2022/06/09 10:58:49;;;;;;;8.02;5.57;;;18.90;99.90;;;;;;4986129;28;20237;-66
2022/06/09 11:01:20;;;;;;;8.25;5.20;;;18.80;99.90;;;;;;4990944;28;20706;-67
2022/06/09 11:03:49;;;;;;;5.75;3.25;;;18.90;99.90;;;;;;4995537;28;20848;-67
2022/06/09 11:06:28;;;;;;;3.75;3.13;;;18.80;99.90;;;;;;4999792;28;20620;-66
2022/06/09 11:09:07;;;;;;;3.78;3.00;;;19.10;99.90;;;;;;4998049;28;20766;-66
2022/06/09 11:11:42;;;;;;;7.47;2.40;;;18.50;99.90;;;;;;4976562;28;20222;-67
2022/06/09 11:14:22;;;;;;;3.38;2.35;;;19.40;99.90;;;;;;5003138;28;20332;-67
2022/06/09 11:17:03;;;;;;;2.97;2.67;;;19.50;99.90;;;;;;4990520;28;20414;-67
2022/06/09 11:19:49;;;;;;;3.40;3.00;;;19.60;99.90;;;;;;5003571;28;20230;-67
2022/06/09 11:22:39;;;;;;;3.95;2.70;;;19.60;99.90;;;;;;5003296;28;20206;-67
2022/06/09 11:25:35;;;;;;;3.28;2.40;;;19.70;99.90;;;;;;5003334;28;21076;-66
2022/06/09 11:28:14;;;;;;;4.70;3.15;;;19.80;99.90;;;;;;4977717;28;20903;-67
2022/06/09 11:31:03;;;;;;;3.40;3.10;;;19.80;99.90;;;;;;4989992;28;20198;-66
2022/06/09 11:33:43;;;;;;;3.38;2.35;;;19.80;99.90;;;;;;4999290;28;20213;-66
2022/06/09 11:36:19;;;;;;;3.15;2.17;;;19.60;99.90;;;;;;4989474;28;20197;-66
2022/06/09 11:38:52;;;;;;;3.50;2.53;;;19.40;99.90;;;;;;4997148;28;20221;-68
2022/06/09 11:41:30;;;;;;;5.00;2.80;;;19.40;99.90;;;;;;4996323;28;20800;-66
2022/06/09 11:44:08;;;;;;;5.25;3.05;;;19.60;99.90;;;;;;4979119;28;20234;-67
2022/06/09 11:46:38;;;;;;;3.15;2.30;;;19.40;99.90;;;;;;4993804;28;20235;-67
2022/06/09 11:49:11;;;;;;;2.10;1.73;;;19.50;99.90;;;;;;4999791;28;20206;-66
2022/06/09 11:51:38;;;;;;;1.60;1.27;;;17.30;99.90;;;;;;4998247;28;20206;-65
2022/06/09 11:54:07;;;;;;;1.75;1.50;;;19.50;99.90;;;;;;4990001;28;20209;-65
2022/06/09 11:56:40;;;;;;;3.70;2.20;;;19.60;99.90;;;;;;4987906;28;21772;-65
2022/06/09 11:59:20;;;;;;;1.58;1.48;;;19.60;99.90;;;;;;4983468;28;20229;-66
2022/06/09 12:02:23;;;;;;;5.00;1.50;;;19.60;99.90;;;;;;4960313;28;20217;-66
2022/06/09 12:05:11;;;;;;;4.35;1.20;;;19.80;99.90;;;;;;5001984;28;20330;-65
2022/06/09 12:07:47;;;;;;;1.40;1.00;;;19.70;99.90;;;;;;4974492;28;20206;-65
2022/06/09 12:10:28;;;;;;;3.22;0.80;;;19.80;99.90;;;;;;4978613;28;20206;-65
2022/06/09 12:13:19;;;;;;;3.40;1.10;;;20.00;99.90;;;;;;5004974;28;20598;-65
2022/06/09 12:15:51;;;;;;;3.63;1.10;;;19.90;99.90;;;;;;4988791;28;20407;-65
2022/06/09 12:18:34;;;;;;;1.83;0.98;;;19.80;99.90;;;;;;4978412;28;20199;-65
2022/06/09 12:21:08;;;;;;;2.33;0.93;;;19.90;99.90;;;;;;4992976;28;20232;-65
2022/06/09 12:23:38;;;;;;;0.80;0.80;;;20.40;99.90;;;;;;4974064;28;20201;-64
2022/06/09 12:26:47;;;;;;;1.67;1.00;;;20.10;99.90;;;;;;5002725;28;20206;-65
2022/06/09 12:29:41;;;;;;;3.67;1.15;;;20.00;99.90;;;;;;5002708;28;20201;-65
2022/06/09 12:32:37;;;;;;;1.90;0.85;;;19.70;99.90;;;;;;4975145;28;20303;-64
2022/06/09 12:35:17;;;;;;;2.50;1.08;;;19.70;99.90;;;;;;4994329;28;20202;-64
2022/06/09 12:37:52;;;;;;;1.65;0.95;;;19.60;99.90;;;;;;4984574;28;20483;-64
2022/06/09 12:40:23;;;;;;;0.77;0.77;;;19.50;99.90;;;;;;4982824;28;20226;-64
2022/06/09 12:42:52;;;;;;;2.03;1.17;;;19.40;99.90;;;;;;4994708;28;20202;-64
2022/06/09 12:45:24;;;;;;;1.15;0.70;;;19.40;99.90;;;;;;4987228;28;20690;-65
2022/06/09 12:47:56;;;;;;;3.25;1.08;;;19.20;99.90;;;;;;4984579;28;20529;-65
2022/06/09 12:50:33;;;;;;;2.95;1.17;;;19.50;99.90;;;;;;5007286;28;20590;-64
2022/06/09 12:53:04;;;;;;;2.35;1.13;;;20.00;99.90;;;;;;4990485;28;20865;-65
2022/06/09 12:55:34;;;;;;;8.35;1.20;;;20.30;99.90;;;;;;4993106;28;20252;-64
2022/06/09 12:58:07;;;;;;;2.25;1.00;;;20.20;99.90;;;;;;4987609;28;20414;-65
2022/06/09 13:00:39;;;;;;;2.60;1.02;;;20.10;99.90;;;;;;4995744;28;20230;-64
2022/06/09 13:03:22;;;;;;;0.80;0.80;;;20.10;99.90;;;;;;4992267;28;20233;-65
2022/06/09 13:05:49;;;;;;;2.30;1.20;;;20.10;99.90;;;;;;4973051;28;20214;-64
2022/06/09 13:08:19;;;;;;;5.18;1.10;;;20.10;99.90;;;;;;4998531;28;20198;-64
2022/06/09 13:10:54;;;;;;;3.83;1.48;;;20.30;99.90;;;;;;4966442;28;20209;-64
2022/06/09 13:13:23;;;;;;;3.13;1.17;;;20.20;99.90;;;;;;5000680;28;20682;-64
2022/06/09 13:15:57;;;;;;;1.92;1.10;;;20.20;99.90;;;;;;5000006;28;20198;-64
2022/06/09 13:18:29;;;;;;;1.27;0.85;;;20.00;99.90;;;;;;4976657;28;20207;-64
2022/06/09 13:21:06;;;;;;;3.90;0.80;;;19.90;99.90;;;;;;4985032;28;20629;-63
2022/06/09 13:23:34;;;;;;;2.45;0.95;;;19.80;99.90;;;;;;5010867;28;20206;-64